Bodega Marine Reserve, California Weather observations

Data are for 10 minute period ending at time listed.
 Day   Time   Solar   Ave.   Ave.  Ave.  Vector  Max.   Baro.   Total    
  of    of     Rad.   Air    Rel.  Wind   Wind   Wind  Press.  Precip.   
Year   Day            Temp.  Hum.  Speed  Dir.   Gust                    
2017   (PST)  Kw/m2    F      %     mph   deg.    mph    mb.     in.     
-------------------------------------------------------------------------
  82   20:10   0.00   52.6    76    7.8   146    11.5   1019.6    0.00 
  82   20:20   0.00   53.0    75    9.5   143    12.2   1019.6    0.00 
  82   20:30   0.00   53.0    75    9.7   140    12.0   1019.6    0.00 
  82   20:40   0.00   53.0    75   10.6   135    13.3   1019.6    0.00 
  82   20:50   0.00   53.0    76    6.9   125    12.1   1019.6    0.00 
  82   21:00   0.00   52.9    76    7.3   127    11.6   1020.0    0.00 
  82   21:10   0.00   52.9    76    9.0   130    13.3   1020.0    0.00 
  82   21:20   0.00   52.9    75   10.1   129    13.4   1019.6    0.00 
  82   21:30   0.00   52.9    75    9.4   127    14.0   1019.6    0.00 
  82   21:40   0.00   52.7    76    7.1   105    12.3   1019.6    0.00 
  82   21:50   0.00   52.2    76    9.2    96    12.4   1019.6    0.00 
  82   22:00   0.00   51.7    78    9.3    93    12.9   1019.6    0.00 
  82   22:10   0.00   51.8    78    8.8    95    11.2   1019.3    0.00 
  82   22:20   0.00   51.7    78    7.7   100    12.1   1019.3    0.00 
  82   22:30   0.00   51.9    78    8.9   100    13.8   1019.3    0.00 
  82   22:40   0.00   51.9    77    9.2    99    13.2   1019.3    0.00 
  82   22:50   0.00   51.9    78    7.3   102    12.8   1019.3    0.00 
  82   23:00   0.00   52.0    77    7.2   104    13.3   1019.6    0.00 
  82   23:10   100.00  99999.0   99999  99999.0   99999   99999.0   99999.0   99999.00 
  82   23:20   100.00  99999.0   99999  99999.0   99999   99999.0   99999.0   99999.00 
  82   23:30   100.00  99999.0   99999  99999.0   99999   99999.0   99999.0   99999.00 
  82   23:40   100.00  99999.0   99999  99999.0   99999   99999.0   99999.0   99999.00 
  82   23:50   100.00  99999.0   99999  99999.0   99999   99999.0   99999.0   99999.00 
  83    0:00   0.00   51.9    79    8.0   101    13.3   1019.3    0.00 
  83    0:10   100.00  99999.0   99999  99999.0   99999   99999.0   99999.0   99999.00 
  83    0:20   100.00  99999.0   99999  99999.0   99999   99999.0   99999.0   99999.00 
  83    0:30   100.00  99999.0   99999  99999.0   99999   99999.0   99999.0   99999.00 
  83    0:40   100.00  99999.0   99999  99999.0   99999   99999.0   99999.0   99999.00 
  83    0:50   100.00  99999.0   99999  99999.0   99999   99999.0   99999.0   99999.00 
  83    1:00   0.00   51.4    84    7.5   100    11.7   1019.0    0.00 
  83    1:10   100.00  99999.0   99999  99999.0   99999   99999.0   99999.0   99999.00 
  83    1:20   100.00  99999.0   99999  99999.0   99999   99999.0   99999.0   99999.00 
  83    1:30   100.00  99999.0   99999  99999.0   99999   99999.0   99999.0   99999.00 
  83    1:40   100.00  99999.0   99999  99999.0   99999   99999.0   99999.0   99999.00 
  83    1:50   100.00  99999.0   99999  99999.0   99999   99999.0   99999.0   99999.00 
  83    2:00   0.00   52.0    86    7.1   118    13.7   1019.0    0.01 
  83    2:10   0.00   52.1    86    6.8   117    14.0   1019.0    0.00 
  83    2:20   0.00   52.0    86    8.0   120    14.2   1018.6    0.00 
  83    2:30   0.00   52.0    87    8.4   120    15.3   1018.6    0.01 
  83    2:40   0.00   52.0    87    9.9   122    17.5   1018.6    0.01 
  83    2:50   0.00   52.1    87   11.0   128    18.8   1018.6    0.00 
  83    3:00   0.00   52.3    88   12.4   130    18.5   1018.6    0.01 
  83    3:10   100.00  99999.0   99999  99999.0   99999   99999.0   99999.0   99999.00 
  83    3:20   100.00  99999.0   99999  99999.0   99999   99999.0   99999.0   99999.00 
  83    3:30   100.00  99999.0   99999  99999.0   99999   99999.0   99999.0   99999.00 
  83    3:40   100.00  99999.0   99999  99999.0   99999   99999.0   99999.0   99999.00 
  83    3:50   100.00  99999.0   99999  99999.0   99999   99999.0   99999.0   99999.00 
  83    4:00   0.00   52.0    90   12.7   125    21.1   1017.3    0.00 
  83    4:10   100.00  99999.0   99999  99999.0   99999   99999.0   99999.0   99999.00 
  83    4:20   100.00  99999.0   99999  99999.0   99999   99999.0   99999.0   99999.00 
  83    4:30   100.00  99999.0   99999  99999.0   99999   99999.0   99999.0   99999.00 
  83    4:40   0.00   52.4    90   17.4   132    23.7   1016.3    0.01 
  83    4:50   0.00   52.3    90   16.5   130    23.2   1016.3    0.01 
  83    5:00   0.00   52.4    91   16.5   129    23.4   1016.3    0.00 
  83    5:10   100.00  99999.0   99999  99999.0   99999   99999.0   99999.0   99999.00 
  83    5:20   0.00   52.3    91   14.2   126    20.2   1015.6    0.01 
  83    5:30   0.00   52.2    91   11.5   122    21.3   1015.6    0.01 
  83    5:40   0.00   52.2    91   13.7   124    20.7   1015.6    0.01 
  83    5:50   0.00   52.1    90   13.8   125    23.6   1015.2    0.01 
  83    6:00   0.00   52.0    90   14.2   124    22.1   1015.2    0.00 
  83    6:10   100.00  99999.0   99999  99999.0   99999   99999.0   99999.0   99999.00 
  83    6:20   100.00  99999.0   99999  99999.0   99999   99999.0   99999.0   99999.00 
  83    6:30   100.00  99999.0   99999  99999.0   99999   99999.0   99999.0   99999.00 
  83    6:40   100.00  99999.0   99999  99999.0   99999   99999.0   99999.0   99999.00 
  83    6:50   100.00  99999.0   99999  99999.0   99999   99999.0   99999.0   99999.00 
  83    7:00   0.00   52.8    90   23.7   135    29.6   1014.6    0.03 
  83    7:10   0.00   52.9    90   25.5   138    31.9   1014.6    0.03 
  83    7:20   0.00   52.9    90   26.5   139    36.5   1014.6    0.04 
  83    7:30   0.00   52.9    90   26.3   140    36.0   1014.6    0.03 
  83    7:40   0.00   52.8    91   29.1   140    35.6   1014.6    0.04 
  83    7:50   0.00   52.8    91   28.5   142    37.0   1014.6    0.03 
  83    8:00   0.00   52.7    91   28.0   143    36.8   1014.6    0.02 
  83    8:10   100.00  99999.0   99999  99999.0   99999   99999.0   99999.0   99999.00 
  83    8:20   100.00  99999.0   99999  99999.0   99999   99999.0   99999.0   99999.00 
  83    8:30   100.00  99999.0   99999  99999.0   99999   99999.0   99999.0   99999.00 
  83    8:40   100.00  99999.0   99999  99999.0   99999   99999.0   99999.0   99999.00 
  83    8:50   100.00  99999.0   99999  99999.0   99999   99999.0   99999.0   99999.00 
  83    9:00   0.02   52.9    92   28.5   152    40.6   1015.2    0.02 
  83    9:10   100.00  99999.0   99999  99999.0   99999   99999.0   99999.0   99999.00 
  83    9:20   100.00  99999.0   99999  99999.0   99999   99999.0   99999.0   99999.00 
  83    9:30   100.00  99999.0   99999  99999.0   99999   99999.0   99999.0   99999.00 
  83    9:40   100.00  99999.0   99999  99999.0   99999   99999.0   99999.0   99999.00 
  83    9:50   100.00  99999.0   99999  99999.0   99999   99999.0   99999.0   99999.00 
  83   10:00   0.02   53.3    93   19.7   176    29.6   1015.9    0.03 
  83   10:10   0.03   53.9    93    9.2   210    18.0   1016.3    0.01 
  83   10:20   0.02   53.7    93    7.2   236    10.2   1016.6    0.03 
  83   10:30   0.02   53.5    93    6.4   232    10.3   1016.6    0.01 
  83   10:40   0.03   53.4    93    6.7   224    10.7   1016.9    0.03 
  83   10:50   0.04   53.5    93    5.8   219     9.9   1016.9    0.02 
  83   11:00   0.06   53.5    93    6.5   212    10.7   1016.9    0.02 
  83   11:10   0.07   53.7    93    6.0   193     9.0   1016.9    0.02 
  83   11:20   0.07   53.9    93    6.3   194    10.2   1016.9    0.00 
  83   11:30   0.06   54.0    93    7.8   208    11.8   1017.6    0.02 
  83   11:40   0.11   53.8    93    9.7   209    13.8   1017.3    0.02 
  83   11:50   0.09   53.9    94    8.1   216    13.8   1017.6    0.01 
  83   12:00   0.14   54.1    94    8.5   217    13.9   1018.0    0.00 
  83   12:10   0.10   54.3    93    8.7   212    14.8   1018.0    0.01 
  83   12:20   0.17   54.2    94    8.4   220    14.1   1018.0    0.00 
  83   12:30   0.17   54.6    93    8.1   211    12.3   1018.0    0.00 
  83   12:40   0.19   54.6    93    8.3   216    12.9   1018.0    0.00 
  83   12:50   0.21   54.8    93    8.8   214    13.6   1018.0    0.00 
  83   13:00   0.19   54.6    93    8.8   212    13.2   1018.0    0.00 
  83   13:10   0.17   54.2    93    9.5   253    14.3   1018.3    0.04 
  83   13:20   0.27   53.7    94    9.0   274    12.0   1018.3    0.00 
  83   13:30   0.29   54.4    94    7.4   263    10.8   1018.3    0.00 
  83   13:40   0.17   54.3    94    7.7   259    11.0   1018.3    0.00 
  83   13:50   0.23   54.0    94   10.0   275    13.5   1018.0    0.00 
  83   14:00   0.28   54.0    94    9.9   286    13.4   1018.3    0.00 
  83   14:10   0.45   54.8    93    8.8   289    12.2   1018.3    0.00 
  83   14:20   0.47   55.1    93    7.8   280    10.2   1018.3    0.00 
  83   14:30   0.40   55.1    92    7.3   283     9.8   1018.6    0.00 
  83   14:40   0.42   55.2    92    6.5   297     9.6   1018.3    0.00 
  83   14:50   0.53   55.4    92    5.8   305     8.3   1018.3    0.00 
  83   15:00   0.45   55.4    90    4.8   282     8.0   1018.3    0.00 
  83   15:10   0.48   55.7    88    4.5   284     6.6   1018.3    0.00 
  83   15:20   0.50   55.9    87    4.4   275     6.8   1018.3    0.00 
  83   15:30   0.50   56.1    85    5.2   282     7.0   1018.6    0.00 
  83   15:40   0.53   56.7    85    5.0   245     7.5   1018.6    0.00 
  83   15:50   0.43   57.0    84    5.1   235     7.8   1018.6    0.00 
  83   16:00   0.46   57.2    83    4.9   223     7.6   1018.6    0.00 
  83   16:10   0.37   57.1    82    5.5   246     7.6   1018.6    0.00 
  83   16:20   0.36   56.4    83    4.7   248     6.6   1018.6    0.00 
  83   16:30   0.30   56.3    83    4.6   245     6.6   1018.6    0.00 
  83   16:40   0.31   56.1    83    4.9   247     6.5   1018.6    0.00 
  83   16:50   0.27   56.0    83    4.9   247     7.6   1018.6    0.00 
  83   17:00   0.21   55.6    83    4.9   248     6.9   1018.6    0.00 
  83   17:10   0.17   55.3    84    4.0   253     5.7   1018.6    0.00 
  83   17:20   0.17   55.3    84    3.2   253     5.3   1018.6    0.00 
  83   17:30   0.13   55.3    84    3.9   235     5.4   1018.6    0.00 
  83   17:40   0.14   55.1    84    4.3   233     6.1   1018.6    0.00 
  83   17:50   0.12   55.3    84    4.4   234     7.0   1018.6    0.00 
  83   18:00   0.10   55.0    84    4.4   225     5.8   1018.6    0.00 
  83   18:10   0.11   55.0    84    3.7   215     5.1   1018.3    0.00 
  83   18:20   0.08   54.8    84    4.1   227     5.3   1018.3    0.00 
  83   18:30   0.07   54.7    84    4.4   225     5.3   1018.3    0.00 
  83   18:40   0.06   54.5    84    3.9   240     5.4   1018.3    0.00 
  83   18:50   0.04   54.4    85    3.3   251     4.6   1018.3    0.00 
  83   19:00   0.04   54.2    85    3.0   254     4.2   1018.3    0.00 
  83   19:10   0.03   54.1    85    2.6   246     3.7   1018.3    0.00 
  83   19:20   0.02   53.6    86    3.1   245     4.1   1018.3    0.00 
  83   19:30   0.01   53.2    86    2.6   265     3.6   1018.0    0.00 
  83   19:40   0.00   53.0    87    2.9   250     3.7   1018.3    0.00 
  83   19:50   0.00   52.9    87    2.5   248     3.1   1018.3    0.00 
  83   20:00   0.00   52.8    88    1.9   253     2.8   1018.3    0.00 

Return to Bodega Marine Reserve graphs page.


Western Regional Climate Center,wrcc@dri.edu